sensor_id;sensor_type;location;lat;lon;timestamp;P1;P2;P0
46240;PMS5003;31961;52.416;-0.732;2022-09-09T00:00:26;5;4;
46240;PMS5003;31961;52.416;-0.732;2022-09-09T00:02:59;8;8;
46240;PMS5003;31961;52.416;-0.732;2022-09-09T00:05:36;9;9;
46240;PMS5003;31961;52.416;-0.732;2022-09-09T00:08:11;5;5;
46240;PMS5003;31961;52.416;-0.732;2022-09-09T00:10:45;7;7;
46240;PMS5003;31961;52.416;-0.732;2022-09-09T00:13:19;7;7;
46240;PMS5003;31961;52.416;-0.732;2022-09-09T00:15:54;9;7;
46240;PMS5003;31961;52.416;-0.732;2022-09-09T00:18:27;8;8;
46240;PMS5003;31961;52.416;-0.732;2022-09-09T00:21:01;5;5;
46240;PMS5003;31961;52.416;-0.732;2022-09-09T00:23:33;7;5;
46240;PMS5003;31961;52.416;-0.732;2022-09-09T00:26:04;7;7;
46240;PMS5003;31961;52.416;-0.732;2022-09-09T00:28:36;8;7;
46240;PMS5003;31961;52.416;-0.732;2022-09-09T00:31:12;7;7;
46240;PMS5003;31961;52.416;-0.732;2022-09-09T00:33:42;7;6;
46240;PMS5003;31961;52.416;-0.732;2022-09-09T00:36:12;6;6;
46240;PMS5003;31961;52.416;-0.732;2022-09-09T00:38:42;6;6;
46240;PMS5003;31961;52.416;-0.732;2022-09-09T00:41:14;7;6;
46240;PMS5003;31961;52.416;-0.732;2022-09-09T00:43:51;10;9;
46240;PMS5003;31961;52.416;-0.732;2022-09-09T00:46:29;5;5;
46240;PMS5003;31961;52.416;-0.732;2022-09-09T00:49:09;6;4;
46240;PMS5003;31961;52.416;-0.732;2022-09-09T00:51:47;6;6;
46240;PMS5003;31961;52.416;-0.732;2022-09-09T00:54:28;9;8;
46240;PMS5003;31961;52.416;-0.732;2022-09-09T00:57:10;8;7;
46240;PMS5003;31961;52.416;-0.732;2022-09-09T00:59:48;9;6;
46240;PMS5003;31961;52.416;-0.732;2022-09-09T01:02:23;11;8;
46240;PMS5003;31961;52.416;-0.732;2022-09-09T01:04:54;6;6;
46240;PMS5003;31961;52.416;-0.732;2022-09-09T01:07:22;7;6;
46240;PMS5003;31961;52.416;-0.732;2022-09-09T01:09:52;6;6;
46240;PMS5003;31961;52.416;-0.732;2022-09-09T01:12:26;9;6;
46240;PMS5003;31961;52.416;-0.732;2022-09-09T01:15:03;10;9;
46240;PMS5003;31961;52.416;-0.732;2022-09-09T01:17:38;9;9;
46240;PMS5003;31961;52.416;-0.732;2022-09-09T01:20:14;9;8;
46240;PMS5003;31961;52.416;-0.732;2022-09-09T01:22:49;8;8;
46240;PMS5003;31961;52.416;-0.732;2022-09-09T01:25:56;8;6;
46240;PMS5003;31961;52.416;-0.732;2022-09-09T01:28:36;6;6;
46240;PMS5003;31961;52.416;-0.732;2022-09-09T01:31:05;6;6;
46240;PMS5003;31961;52.416;-0.732;2022-09-09T01:33:35;13;8;
46240;PMS5003;31961;52.416;-0.732;2022-09-09T01:36:03;13;11;
46240;PMS5003;31961;52.416;-0.732;2022-09-09T01:38:34;12;12;
46240;PMS5003;31961;52.416;-0.732;2022-09-09T01:41:03;12;10;
46240;PMS5003;31961;52.416;-0.732;2022-09-09T01:43:30;13;10;
46240;PMS5003;31961;52.416;-0.732;2022-09-09T01:45:59;12;11;
46240;PMS5003;31961;52.416;-0.732;2022-09-09T01:48:27;15;11;
46240;PMS5003;31961;52.416;-0.732;2022-09-09T01:50:56;14;11;
46240;PMS5003;31961;52.416;-0.732;2022-09-09T01:53:23;17;12;
46240;PMS5003;31961;52.416;-0.732;2022-09-09T01:55:54;17;13;
46240;PMS5003;31961;52.416;-0.732;2022-09-09T01:58:29;13;13;
46240;PMS5003;31961;52.416;-0.732;2022-09-09T02:01:05;19;15;
46240;PMS5003;31961;52.416;-0.732;2022-09-09T02:03:39;19;17;
46240;PMS5003;31961;52.416;-0.732;2022-09-09T02:06:13;20;16;
46240;PMS5003;31961;52.416;-0.732;2022-09-09T02:08:49;18;16;
46240;PMS5003;31961;52.416;-0.732;2022-09-09T02:11:19;14;13;
46240;PMS5003;31961;52.416;-0.732;2022-09-09T02:13:51;16;14;
46240;PMS5003;31961;52.416;-0.732;2022-09-09T02:16:22;11;10;
46240;PMS5003;31961;52.416;-0.732;2022-09-09T02:18:53;13;12;
46240;PMS5003;31961;52.416;-0.732;2022-09-09T02:21:26;18;12;
46240;PMS5003;31961;52.416;-0.732;2022-09-09T02:23:56;17;15;
46240;PMS5003;31961;52.416;-0.732;2022-09-09T02:26:26;15;15;
46240;PMS5003;31961;52.416;-0.732;2022-09-09T02:28:54;14;14;
46240;PMS5003;31961;52.416;-0.732;2022-09-09T02:31:24;17;11;
46240;PMS5003;31961;52.416;-0.732;2022-09-09T02:33:52;15;11;
46240;PMS5003;31961;52.416;-0.732;2022-09-09T02:36:22;13;12;
46240;PMS5003;31961;52.416;-0.732;2022-09-09T02:38:53;12;11;
46240;PMS5003;31961;52.416;-0.732;2022-09-09T02:41:22;12;10;
46240;PMS5003;31961;52.416;-0.732;2022-09-09T02:43:56;13;9;
46240;PMS5003;31961;52.416;-0.732;2022-09-09T02:46:27;12;10;
46240;PMS5003;31961;52.416;-0.732;2022-09-09T02:49:06;14;10;
46240;PMS5003;31961;52.416;-0.732;2022-09-09T02:51:39;10;8;
46240;PMS5003;31961;52.416;-0.732;2022-09-09T02:54:15;10;10;
46240;PMS5003;31961;52.416;-0.732;2022-09-09T02:56:51;13;12;
46240;PMS5003;31961;52.416;-0.732;2022-09-09T02:59:19;9;8;
46240;PMS5003;31961;52.416;-0.732;2022-09-09T03:01:47;12;12;
46240;PMS5003;31961;52.416;-0.732;2022-09-09T03:04:14;12;12;
46240;PMS5003;31961;52.416;-0.732;2022-09-09T03:06:41;13;13;
46240;PMS5003;31961;52.416;-0.732;2022-09-09T03:09:08;13;13;
46240;PMS5003;31961;52.416;-0.732;2022-09-09T03:11:36;13;10;
46240;PMS5003;31961;52.416;-0.732;2022-09-09T03:14:03;13;12;
46240;PMS5003;31961;52.416;-0.732;2022-09-09T03:16:30;12;10;
46240;PMS5003;31961;52.416;-0.732;2022-09-09T03:18:58;10;10;
46240;PMS5003;31961;52.416;-0.732;2022-09-09T03:21:26;15;14;
46240;PMS5003;31961;52.416;-0.732;2022-09-09T03:23:53;10;9;
46240;PMS5003;31961;52.416;-0.732;2022-09-09T03:26:21;11;10;
46240;PMS5003;31961;52.416;-0.732;2022-09-09T03:28:48;12;12;
46240;PMS5003;31961;52.416;-0.732;2022-09-09T03:31:16;12;12;
46240;PMS5003;31961;52.416;-0.732;2022-09-09T03:33:43;11;10;
46240;PMS5003;31961;52.416;-0.732;2022-09-09T03:36:10;16;13;
46240;PMS5003;31961;52.416;-0.732;2022-09-09T03:38:37;14;14;
46240;PMS5003;31961;52.416;-0.732;2022-09-09T03:41:05;17;16;
46240;PMS5003;31961;52.416;-0.732;2022-09-09T03:43:32;13;10;
46240;PMS5003;31961;52.416;-0.732;2022-09-09T03:46:00;15;12;
46240;PMS5003;31961;52.416;-0.732;2022-09-09T03:48:27;14;14;
46240;PMS5003;31961;52.416;-0.732;2022-09-09T03:50:55;15;14;
46240;PMS5003;31961;52.416;-0.732;2022-09-09T03:53:23;15;14;
46240;PMS5003;31961;52.416;-0.732;2022-09-09T03:55:51;14;14;
46240;PMS5003;31961;52.416;-0.732;2022-09-09T03:58:20;17;16;
46240;PMS5003;31961;52.416;-0.732;2022-09-09T04:00:52;18;17;
46240;PMS5003;31961;52.416;-0.732;2022-09-09T04:03:21;21;20;
46240;PMS5003;31961;52.416;-0.732;2022-09-09T04:05:49;25;24;
46240;PMS5003;31961;52.416;-0.732;2022-09-09T04:08:17;22;22;
46240;PMS5003;31961;52.416;-0.732;2022-09-09T04:10:45;15;13;
46240;PMS5003;31961;52.416;-0.732;2022-09-09T04:13:12;24;21;
46240;PMS5003;31961;52.416;-0.732;2022-09-09T04:15:39;23;22;
46240;PMS5003;31961;52.416;-0.732;2022-09-09T04:18:06;20;20;
46240;PMS5003;31961;52.416;-0.732;2022-09-09T04:20:34;17;16;
46240;PMS5003;31961;52.416;-0.732;2022-09-09T04:23:01;24;23;
46240;PMS5003;31961;52.416;-0.732;2022-09-09T04:25:29;27;22;
46240;PMS5003;31961;52.416;-0.732;2022-09-09T04:27:57;25;22;
46240;PMS5003;31961;52.416;-0.732;2022-09-09T04:30:24;26;22;
46240;PMS5003;31961;52.416;-0.732;2022-09-09T04:32:52;19;18;
46240;PMS5003;31961;52.416;-0.732;2022-09-09T04:35:19;21;19;
46240;PMS5003;31961;52.416;-0.732;2022-09-09T04:37:46;26;22;
46240;PMS5003;31961;52.416;-0.732;2022-09-09T04:40:13;26;22;
46240;PMS5003;31961;52.416;-0.732;2022-09-09T04:42:40;25;20;
46240;PMS5003;31961;52.416;-0.732;2022-09-09T04:45:07;23;21;
46240;PMS5003;31961;52.416;-0.732;2022-09-09T04:47:35;19;16;
46240;PMS5003;31961;52.416;-0.732;2022-09-09T04:50:02;23;20;
46240;PMS5003;31961;52.416;-0.732;2022-09-09T04:52:30;30;28;
46240;PMS5003;31961;52.416;-0.732;2022-09-09T04:54:58;26;22;
46240;PMS5003;31961;52.416;-0.732;2022-09-09T04:57:26;24;24;
46240;PMS5003;31961;52.416;-0.732;2022-09-09T04:59:53;25;22;
46240;PMS5003;31961;52.416;-0.732;2022-09-09T05:02:20;25;20;
46240;PMS5003;31961;52.416;-0.732;2022-09-09T05:04:47;29;26;
46240;PMS5003;31961;52.416;-0.732;2022-09-09T05:07:15;26;21;
46240;PMS5003;31961;52.416;-0.732;2022-09-09T05:09:42;22;20;
46240;PMS5003;31961;52.416;-0.732;2022-09-09T05:12:09;24;22;
46240;PMS5003;31961;52.416;-0.732;2022-09-09T05:14:36;22;19;
46240;PMS5003;31961;52.416;-0.732;2022-09-09T05:17:03;21;20;
46240;PMS5003;31961;52.416;-0.732;2022-09-09T05:19:30;18;16;
46240;PMS5003;31961;52.416;-0.732;2022-09-09T05:21:57;22;17;
46240;PMS5003;31961;52.416;-0.732;2022-09-09T05:24:25;22;20;
46240;PMS5003;31961;52.416;-0.732;2022-09-09T05:26:52;24;21;
46240;PMS5003;31961;52.416;-0.732;2022-09-09T05:29:19;29;26;
46240;PMS5003;31961;52.416;-0.732;2022-09-09T05:31:47;23;19;
46240;PMS5003;31961;52.416;-0.732;2022-09-09T05:34:14;27;26;
46240;PMS5003;31961;52.416;-0.732;2022-09-09T05:36:41;26;22;
46240;PMS5003;31961;52.416;-0.732;2022-09-09T05:39:08;24;22;
46240;PMS5003;31961;52.416;-0.732;2022-09-09T05:41:35;26;21;
46240;PMS5003;31961;52.416;-0.732;2022-09-09T05:44:02;27;24;
46240;PMS5003;31961;52.416;-0.732;2022-09-09T05:46:29;21;19;
46240;PMS5003;31961;52.416;-0.732;2022-09-09T05:48:56;24;22;
46240;PMS5003;31961;52.416;-0.732;2022-09-09T05:51:23;25;21;
46240;PMS5003;31961;52.416;-0.732;2022-09-09T05:53:52;32;25;
46240;PMS5003;31961;52.416;-0.732;2022-09-09T05:56:19;24;21;
46240;PMS5003;31961;52.416;-0.732;2022-09-09T05:58:48;22;20;
46240;PMS5003;31961;52.416;-0.732;2022-09-09T06:01:16;23;21;
46240;PMS5003;31961;52.416;-0.732;2022-09-09T06:03:45;32;27;
46240;PMS5003;31961;52.416;-0.732;2022-09-09T06:06:14;22;19;
46240;PMS5003;31961;52.416;-0.732;2022-09-09T06:08:43;27;23;
46240;PMS5003;31961;52.416;-0.732;2022-09-09T06:11:12;23;20;
46240;PMS5003;31961;52.416;-0.732;2022-09-09T06:13:41;22;20;
46240;PMS5003;31961;52.416;-0.732;2022-09-09T06:16:09;25;22;
46240;PMS5003;31961;52.416;-0.732;2022-09-09T06:18:38;29;23;
46240;PMS5003;31961;52.416;-0.732;2022-09-09T06:21:06;25;20;
46240;PMS5003;31961;52.416;-0.732;2022-09-09T06:23:39;29;25;
46240;PMS5003;31961;52.416;-0.732;2022-09-09T06:26:07;25;18;
46240;PMS5003;31961;52.416;-0.732;2022-09-09T06:28:37;35;28;
46240;PMS5003;31961;52.416;-0.732;2022-09-09T06:31:06;32;31;
46240;PMS5003;31961;52.416;-0.732;2022-09-09T06:33:35;30;25;
46240;PMS5003;31961;52.416;-0.732;2022-09-09T06:36:05;31;29;
46240;PMS5003;31961;52.416;-0.732;2022-09-09T06:38:33;28;24;
46240;PMS5003;31961;52.416;-0.732;2022-09-09T06:41:01;29;24;
46240;PMS5003;31961;52.416;-0.732;2022-09-09T06:43:29;30;25;
46240;PMS5003;31961;52.416;-0.732;2022-09-09T06:45:56;35;30;
46240;PMS5003;31961;52.416;-0.732;2022-09-09T06:48:25;36;31;
46240;PMS5003;31961;52.416;-0.732;2022-09-09T06:51:00;41;33;
46240;PMS5003;31961;52.416;-0.732;2022-09-09T06:53:28;34;28;
46240;PMS5003;31961;52.416;-0.732;2022-09-09T06:55:56;39;32;
46240;PMS5003;31961;52.416;-0.732;2022-09-09T06:58:24;37;31;
46240;PMS5003;31961;52.416;-0.732;2022-09-09T07:00:50;37;31;
46240;PMS5003;31961;52.416;-0.732;2022-09-09T07:03:18;34;30;
46240;PMS5003;31961;52.416;-0.732;2022-09-09T07:05:53;36;33;
46240;PMS5003;31961;52.416;-0.732;2022-09-09T07:08:21;40;34;
46240;PMS5003;31961;52.416;-0.732;2022-09-09T07:10:48;37;32;
46240;PMS5003;31961;52.416;-0.732;2022-09-09T07:13:15;37;35;
46240;PMS5003;31961;52.416;-0.732;2022-09-09T07:15:42;35;29;
46240;PMS5003;31961;52.416;-0.732;2022-09-09T07:18:09;31;28;
46240;PMS5003;31961;52.416;-0.732;2022-09-09T07:20:36;34;31;
46240;PMS5003;31961;52.416;-0.732;2022-09-09T07:23:03;28;27;
46240;PMS5003;31961;52.416;-0.732;2022-09-09T07:25:30;30;27;
46240;PMS5003;31961;52.416;-0.732;2022-09-09T07:27:57;35;30;
46240;PMS5003;31961;52.416;-0.732;2022-09-09T07:30:24;28;26;
46240;PMS5003;31961;52.416;-0.732;2022-09-09T07:32:52;31;26;
46240;PMS5003;31961;52.416;-0.732;2022-09-09T07:35:19;27;25;
46240;PMS5003;31961;52.416;-0.732;2022-09-09T07:37:46;28;25;
46240;PMS5003;31961;52.416;-0.732;2022-09-09T07:40:13;28;23;
46240;PMS5003;31961;52.416;-0.732;2022-09-09T07:42:40;31;25;
46240;PMS5003;31961;52.416;-0.732;2022-09-09T07:45:08;27;24;
46240;PMS5003;31961;52.416;-0.732;2022-09-09T07:47:35;28;23;
46240;PMS5003;31961;52.416;-0.732;2022-09-09T07:50:02;33;25;
46240;PMS5003;31961;52.416;-0.732;2022-09-09T07:52:30;32;29;
46240;PMS5003;31961;52.416;-0.732;2022-09-09T07:54:57;23;22;
46240;PMS5003;31961;52.416;-0.732;2022-09-09T07:57:24;33;27;
46240;PMS5003;31961;52.416;-0.732;2022-09-09T07:59:51;28;26;
46240;PMS5003;31961;52.416;-0.732;2022-09-09T08:02:18;39;33;
46240;PMS5003;31961;52.416;-0.732;2022-09-09T08:04:45;32;30;
46240;PMS5003;31961;52.416;-0.732;2022-09-09T08:07:12;33;30;
46240;PMS5003;31961;52.416;-0.732;2022-09-09T08:09:40;27;24;
46240;PMS5003;31961;52.416;-0.732;2022-09-09T08:12:07;32;26;
46240;PMS5003;31961;52.416;-0.732;2022-09-09T08:14:35;30;26;
46240;PMS5003;31961;52.416;-0.732;2022-09-09T08:17:02;35;34;
46240;PMS5003;31961;52.416;-0.732;2022-09-09T08:19:29;34;29;
46240;PMS5003;31961;52.416;-0.732;2022-09-09T08:21:56;36;30;
46240;PMS5003;31961;52.416;-0.732;2022-09-09T08:24:23;35;29;
46240;PMS5003;31961;52.416;-0.732;2022-09-09T08:26:50;33;28;
46240;PMS5003;31961;52.416;-0.732;2022-09-09T08:29:17;36;30;
46240;PMS5003;31961;52.416;-0.732;2022-09-09T08:31:45;35;28;
46240;PMS5003;31961;52.416;-0.732;2022-09-09T08:34:14;45;37;
46240;PMS5003;31961;52.416;-0.732;2022-09-09T08:36:43;42;35;
46240;PMS5003;31961;52.416;-0.732;2022-09-09T08:39:12;39;35;
46240;PMS5003;31961;52.416;-0.732;2022-09-09T08:41:52;35;32;
46240;PMS5003;31961;52.416;-0.732;2022-09-09T08:45:31;38;29;
46240;PMS5003;31961;52.416;-0.732;2022-09-09T08:48:08;34;28;
46240;PMS5003;31961;52.416;-0.732;2022-09-09T08:50:47;43;35;
46240;PMS5003;31961;52.416;-0.732;2022-09-09T08:53:17;30;27;
46240;PMS5003;31961;52.416;-0.732;2022-09-09T08:55:48;36;31;
46240;PMS5003;31961;52.416;-0.732;2022-09-09T08:58:18;31;30;
46240;PMS5003;31961;52.416;-0.732;2022-09-09T09:00:52;31;27;
46240;PMS5003;31961;52.416;-0.732;2022-09-09T09:03:31;34;29;
46240;PMS5003;31961;52.416;-0.732;2022-09-09T09:06:10;33;30;
46240;PMS5003;31961;52.416;-0.732;2022-09-09T09:08:47;28;27;
46240;PMS5003;31961;52.416;-0.732;2022-09-09T09:11:21;28;26;
46240;PMS5003;31961;52.416;-0.732;2022-09-09T09:13:50;33;28;
46240;PMS5003;31961;52.416;-0.732;2022-09-09T09:16:23;30;26;
46240;PMS5003;31961;52.416;-0.732;2022-09-09T09:18:56;30;25;
46240;PMS5003;31961;52.416;-0.732;2022-09-09T09:21:25;28;24;
46240;PMS5003;31961;52.416;-0.732;2022-09-09T09:24:12;26;24;
46240;PMS5003;31961;52.416;-0.732;2022-09-09T09:26:44;26;25;
46240;PMS5003;31961;52.416;-0.732;2022-09-09T09:29:12;27;26;
46240;PMS5003;31961;52.416;-0.732;2022-09-09T09:31:43;28;24;
46240;PMS5003;31961;52.416;-0.732;2022-09-09T09:34:13;25;24;
46240;PMS5003;31961;52.416;-0.732;2022-09-09T09:36:41;28;24;
46240;PMS5003;31961;52.416;-0.732;2022-09-09T09:39:10;24;22;
46240;PMS5003;31961;52.416;-0.732;2022-09-09T09:41:49;32;28;
46240;PMS5003;31961;52.416;-0.732;2022-09-09T09:44:21;27;25;
46240;PMS5003;31961;52.416;-0.732;2022-09-09T09:46:51;24;24;
46240;PMS5003;31961;52.416;-0.732;2022-09-09T09:49:18;26;23;
46240;PMS5003;31961;52.416;-0.732;2022-09-09T09:51:45;21;18;
46240;PMS5003;31961;52.416;-0.732;2022-09-09T09:54:15;28;24;
46240;PMS5003;31961;52.416;-0.732;2022-09-09T09:56:51;20;18;
46240;PMS5003;31961;52.416;-0.732;2022-09-09T09:59:19;21;21;
46240;PMS5003;31961;52.416;-0.732;2022-09-09T10:01:48;25;21;
46240;PMS5003;31961;52.416;-0.732;2022-09-09T10:04:16;22;22;
46240;PMS5003;31961;52.416;-0.732;2022-09-09T10:06:45;14;14;
46240;PMS5003;31961;52.416;-0.732;2022-09-09T10:09:21;14;14;
46240;PMS5003;31961;52.416;-0.732;2022-09-09T10:11:53;20;18;
46240;PMS5003;31961;52.416;-0.732;2022-09-09T10:14:29;24;23;
46240;PMS5003;31961;52.416;-0.732;2022-09-09T10:17:08;21;19;
46240;PMS5003;31961;52.416;-0.732;2022-09-09T10:19:46;27;24;
46240;PMS5003;31961;52.416;-0.732;2022-09-09T10:22:25;21;20;
46240;PMS5003;31961;52.416;-0.732;2022-09-09T10:24:57;23;21;
46240;PMS5003;31961;52.416;-0.732;2022-09-09T10:27:40;21;20;
46240;PMS5003;31961;52.416;-0.732;2022-09-09T10:30:15;20;16;
46240;PMS5003;31961;52.416;-0.732;2022-09-09T10:32:53;18;16;
46240;PMS5003;31961;52.416;-0.732;2022-09-09T10:35:30;15;15;
46240;PMS5003;31961;52.416;-0.732;2022-09-09T10:38:05;15;14;
46240;PMS5003;31961;52.416;-0.732;2022-09-09T10:40:39;15;14;
46240;PMS5003;31961;52.416;-0.732;2022-09-09T10:43:16;13;13;
46240;PMS5003;31961;52.416;-0.732;2022-09-09T10:45:57;17;16;
46240;PMS5003;31961;52.416;-0.732;2022-09-09T10:48:36;15;15;
46240;PMS5003;31961;52.416;-0.732;2022-09-09T10:51:14;16;15;
46240;PMS5003;31961;52.416;-0.732;2022-09-09T10:53:52;16;15;
46240;PMS5003;31961;52.416;-0.732;2022-09-09T10:56:31;17;16;
46240;PMS5003;31961;52.416;-0.732;2022-09-09T10:59:00;12;12;
46240;PMS5003;31961;52.416;-0.732;2022-09-09T11:01:36;16;13;
46240;PMS5003;31961;52.416;-0.732;2022-09-09T11:04:10;13;12;
46240;PMS5003;31961;52.416;-0.732;2022-09-09T11:06:44;10;10;
46240;PMS5003;31961;52.416;-0.732;2022-09-09T11:09:15;9;9;
46240;PMS5003;31961;52.416;-0.732;2022-09-09T11:11:46;15;15;
46240;PMS5003;31961;52.416;-0.732;2022-09-09T11:14:19;20;19;
46240;PMS5003;31961;52.416;-0.732;2022-09-09T11:16:53;17;16;
46240;PMS5003;31961;52.416;-0.732;2022-09-09T11:19:24;16;14;
46240;PMS5003;31961;52.416;-0.732;2022-09-09T11:21:57;13;13;
46240;PMS5003;31961;52.416;-0.732;2022-09-09T11:24:28;14;14;
46240;PMS5003;31961;52.416;-0.732;2022-09-09T11:27:01;17;13;
46240;PMS5003;31961;52.416;-0.732;2022-09-09T11:29:41;16;14;
46240;PMS5003;31961;52.416;-0.732;2022-09-09T11:32:27;12;12;
46240;PMS5003;31961;52.416;-0.732;2022-09-09T11:35:23;17;15;
46240;PMS5003;31961;52.416;-0.732;2022-09-09T11:38:10;19;18;
46240;PMS5003;31961;52.416;-0.732;2022-09-09T11:40:45;18;14;
46240;PMS5003;31961;52.416;-0.732;2022-09-09T11:43:21;13;12;
46240;PMS5003;31961;52.416;-0.732;2022-09-09T11:45:53;13;11;
46240;PMS5003;31961;52.416;-0.732;2022-09-09T11:48:23;10;10;
46240;PMS5003;31961;52.416;-0.732;2022-09-09T11:50:57;14;12;
46240;PMS5003;31961;52.416;-0.732;2022-09-09T11:53:25;14;12;
46240;PMS5003;31961;52.416;-0.732;2022-09-09T11:56:09;13;12;
46240;PMS5003;31961;52.416;-0.732;2022-09-09T11:58:40;15;13;
46240;PMS5003;31961;52.416;-0.732;2022-09-09T12:01:42;15;12;
46240;PMS5003;31961;52.416;-0.732;2022-09-09T12:04:27;14;12;
46240;PMS5003;31961;52.416;-0.732;2022-09-09T12:06:58;10;9;
46240;PMS5003;31961;52.416;-0.732;2022-09-09T12:09:31;13;12;
46240;PMS5003;31961;52.416;-0.732;2022-09-09T12:12:07;11;11;
46240;PMS5003;31961;52.416;-0.732;2022-09-09T12:14:55;14;14;
46240;PMS5003;31961;52.416;-0.732;2022-09-09T12:17:25;14;10;
46240;PMS5003;31961;52.416;-0.732;2022-09-09T12:20:03;8;8;
46240;PMS5003;31961;52.416;-0.732;2022-09-09T12:22:45;8;7;
46240;PMS5003;31961;52.416;-0.732;2022-09-09T12:25:26;7;7;
46240;PMS5003;31961;52.416;-0.732;2022-09-09T12:28:01;8;7;
46240;PMS5003;31961;52.416;-0.732;2022-09-09T12:30:39;11;11;
46240;PMS5003;31961;52.416;-0.732;2022-09-09T12:33:16;10;10;
46240;PMS5003;31961;52.416;-0.732;2022-09-09T12:35:46;12;10;
46240;PMS5003;31961;52.416;-0.732;2022-09-09T12:38:21;13;11;
46240;PMS5003;31961;52.416;-0.732;2022-09-09T12:40:54;8;8;
46240;PMS5003;31961;52.416;-0.732;2022-09-09T12:43:23;11;11;
46240;PMS5003;31961;52.416;-0.732;2022-09-09T12:45:53;10;10;
46240;PMS5003;31961;52.416;-0.732;2022-09-09T12:48:25;8;7;
46240;PMS5003;31961;52.416;-0.732;2022-09-09T12:50:56;9;9;
46240;PMS5003;31961;52.416;-0.732;2022-09-09T12:53:25;10;9;
46240;PMS5003;31961;52.416;-0.732;2022-09-09T12:55:56;10;10;
46240;PMS5003;31961;52.416;-0.732;2022-09-09T12:58:25;10;10;
46240;PMS5003;31961;52.416;-0.732;2022-09-09T13:00:54;11;9;
46240;PMS5003;31961;52.416;-0.732;2022-09-09T13:03:23;13;12;
46240;PMS5003;31961;52.416;-0.732;2022-09-09T13:05:50;11;11;
46240;PMS5003;31961;52.416;-0.732;2022-09-09T13:08:18;9;9;
46240;PMS5003;31961;52.416;-0.732;2022-09-09T13:10:47;10;9;
46240;PMS5003;31961;52.416;-0.732;2022-09-09T13:13:16;7;7;
46240;PMS5003;31961;52.416;-0.732;2022-09-09T13:15:48;8;7;
46240;PMS5003;31961;52.416;-0.732;2022-09-09T13:18:19;11;9;
46240;PMS5003;31961;52.416;-0.732;2022-09-09T13:20:49;12;11;
46240;PMS5003;31961;52.416;-0.732;2022-09-09T13:23:18;9;8;
46240;PMS5003;31961;52.416;-0.732;2022-09-09T13:25:55;9;8;
46240;PMS5003;31961;52.416;-0.732;2022-09-09T13:28:24;4;4;
46240;PMS5003;31961;52.416;-0.732;2022-09-09T13:30:56;5;5;
46240;PMS5003;31961;52.416;-0.732;2022-09-09T13:33:28;5;5;
46240;PMS5003;31961;52.416;-0.732;2022-09-09T13:35:57;4;4;
46240;PMS5003;31961;52.416;-0.732;2022-09-09T13:38:27;5;5;
46240;PMS5003;31961;52.416;-0.732;2022-09-09T13:40:57;5;5;
46240;PMS5003;31961;52.416;-0.732;2022-09-09T13:43:26;6;6;
46240;PMS5003;31961;52.416;-0.732;2022-09-09T13:45:55;6;6;
46240;PMS5003;31961;52.416;-0.732;2022-09-09T13:48:24;6;6;
46240;PMS5003;31961;52.416;-0.732;2022-09-09T13:50:54;6;6;
46240;PMS5003;31961;52.416;-0.732;2022-09-09T13:53:23;8;7;
46240;PMS5003;31961;52.416;-0.732;2022-09-09T13:55:51;8;8;
46240;PMS5003;31961;52.416;-0.732;2022-09-09T13:58:18;11;11;
46240;PMS5003;31961;52.416;-0.732;2022-09-09T14:00:46;7;7;
46240;PMS5003;31961;52.416;-0.732;2022-09-09T14:03:13;8;8;
46240;PMS5003;31961;52.416;-0.732;2022-09-09T14:05:41;9;9;
46240;PMS5003;31961;52.416;-0.732;2022-09-09T14:08:10;11;10;
46240;PMS5003;31961;52.416;-0.732;2022-09-09T14:10:46;7;7;
46240;PMS5003;31961;52.416;-0.732;2022-09-09T14:13:14;6;6;
46240;PMS5003;31961;52.416;-0.732;2022-09-09T14:15:41;7;7;
46240;PMS5003;31961;52.416;-0.732;2022-09-09T14:18:09;7;7;
46240;PMS5003;31961;52.416;-0.732;2022-09-09T14:20:37;7;6;
46240;PMS5003;31961;52.416;-0.732;2022-09-09T14:23:05;8;7;
46240;PMS5003;31961;52.416;-0.732;2022-09-09T14:25:36;3;3;
46240;PMS5003;31961;52.416;-0.732;2022-09-09T14:28:07;4;4;
46240;PMS5003;31961;52.416;-0.732;2022-09-09T14:30:36;5;4;
46240;PMS5003;31961;52.416;-0.732;2022-09-09T14:33:04;6;6;
46240;PMS5003;31961;52.416;-0.732;2022-09-09T14:35:31;6;4;
46240;PMS5003;31961;52.416;-0.732;2022-09-09T14:37:59;5;5;
46240;PMS5003;31961;52.416;-0.732;2022-09-09T14:40:26;7;7;
46240;PMS5003;31961;52.416;-0.732;2022-09-09T14:42:54;5;5;
46240;PMS5003;31961;52.416;-0.732;2022-09-09T14:45:21;6;5;
46240;PMS5003;31961;52.416;-0.732;2022-09-09T14:47:49;6;4;
46240;PMS5003;31961;52.416;-0.732;2022-09-09T14:50:16;4;4;
46240;PMS5003;31961;52.416;-0.732;2022-09-09T14:52:44;7;6;
46240;PMS5003;31961;52.416;-0.732;2022-09-09T14:55:12;6;5;
46240;PMS5003;31961;52.416;-0.732;2022-09-09T14:57:40;3;3;
46240;PMS5003;31961;52.416;-0.732;2022-09-09T15:00:08;3;3;
46240;PMS5003;31961;52.416;-0.732;2022-09-09T15:02:36;3;3;
46240;PMS5003;31961;52.416;-0.732;2022-09-09T15:05:04;4;4;
46240;PMS5003;31961;52.416;-0.732;2022-09-09T15:07:32;5;5;
46240;PMS5003;31961;52.416;-0.732;2022-09-09T15:10:00;5;5;
46240;PMS5003;31961;52.416;-0.732;2022-09-09T15:12:27;4;4;
46240;PMS5003;31961;52.416;-0.732;2022-09-09T15:14:55;6;6;
46240;PMS5003;31961;52.416;-0.732;2022-09-09T15:17:23;8;6;
46240;PMS5003;31961;52.416;-0.732;2022-09-09T15:19:50;8;6;
46240;PMS5003;31961;52.416;-0.732;2022-09-09T15:22:17;8;8;
46240;PMS5003;31961;52.416;-0.732;2022-09-09T15:24:45;6;5;
46240;PMS5003;31961;52.416;-0.732;2022-09-09T15:27:12;7;7;
46240;PMS5003;31961;52.416;-0.732;2022-09-09T15:29:40;6;5;
46240;PMS5003;31961;52.416;-0.732;2022-09-09T15:32:07;7;7;
46240;PMS5003;31961;52.416;-0.732;2022-09-09T15:34:35;8;7;
46240;PMS5003;31961;52.416;-0.732;2022-09-09T15:37:01;11;11;
46240;PMS5003;31961;52.416;-0.732;2022-09-09T15:39:29;12;10;
46240;PMS5003;31961;52.416;-0.732;2022-09-09T15:41:56;9;9;
46240;PMS5003;31961;52.416;-0.732;2022-09-09T15:44:23;11;9;
46240;PMS5003;31961;52.416;-0.732;2022-09-09T15:46:51;8;7;
46240;PMS5003;31961;52.416;-0.732;2022-09-09T15:49:20;10;9;
46240;PMS5003;31961;52.416;-0.732;2022-09-09T15:51:50;8;8;
46240;PMS5003;31961;52.416;-0.732;2022-09-09T15:54:19;9;8;
46240;PMS5003;31961;52.416;-0.732;2022-09-09T15:56:50;12;10;
46240;PMS5003;31961;52.416;-0.732;2022-09-09T15:59:19;7;6;
46240;PMS5003;31961;52.416;-0.732;2022-09-09T16:01:46;5;5;
46240;PMS5003;31961;52.416;-0.732;2022-09-09T16:04:14;3;3;
46240;PMS5003;31961;52.416;-0.732;2022-09-09T16:06:41;3;3;
46240;PMS5003;31961;52.416;-0.732;2022-09-09T16:09:09;3;3;
46240;PMS5003;31961;52.416;-0.732;2022-09-09T16:11:37;3;3;
46240;PMS5003;31961;52.416;-0.732;2022-09-09T16:14:05;2;2;
46240;PMS5003;31961;52.416;-0.732;2022-09-09T16:16:33;2;2;
46240;PMS5003;31961;52.416;-0.732;2022-09-09T16:19:03;0;0;
46240;PMS5003;31961;52.416;-0.732;2022-09-09T16:21:33;1;1;
46240;PMS5003;31961;52.416;-0.732;2022-09-09T16:24:02;3;1;
46240;PMS5003;31961;52.416;-0.732;2022-09-09T16:26:31;4;3;
46240;PMS5003;31961;52.416;-0.732;2022-09-09T16:29:00;3;3;
46240;PMS5003;31961;52.416;-0.732;2022-09-09T16:31:29;2;2;
46240;PMS5003;31961;52.416;-0.732;2022-09-09T16:33:56;1;1;